This is the latest recevied weather packets stored in our database for station/object HB0RER-13. If no packets are shown the sender has not sent any weather packets the latest 10 day(s).
| Time | Temp. | Humidity | Pressure | Rain* | Wind** | Luminosity | Snow |
|---|---|---|---|---|---|---|---|
| 1777843370 | 16.67° C | 49% | 1015.7 hPa | 0 mm | - | - | - |
| 1777841564 | 16.67° C | 47% | 1015.4 hPa | 0 mm | - | - | - |
| 1777840962 | 16.67° C | 46% | 1015.3 hPa | 0 mm | - | - | - |
| 1777836146 | 19.44° C | 37% | 1014.4 hPa | 0 mm | - | - | - |
| 1777835544 | 19.44° C | 36% | 1014.3 hPa | 0 mm | - | - | - |
| 1777828320 | 22.22° C | 32% | 1013.2 hPa | 0 mm | - | - | - |
| 1777827719 | 22.78° C | 33% | 1013.2 hPa | 0 mm | - | - | - |
| 1777826534 | 22.78° C | 30% | 1013.2 hPa | 0 mm | - | - | - |
| 1777825310 | 23.33° C | 32% | 1013.1 hPa | 0 mm | - | - | - |
| 1777816882 | 23.89° C | 33% | 1013.3 hPa | 0 mm | - | - | - |
| 1777816280 | 23.33° C | 34% | 1013.4 hPa | 0 mm | - | - | - |
| 1777753672 | 15° C | 50% | 1018 hPa | 0 mm | - | - | - |
| 1777745245 | 20.56° C | 32% | 1017.3 hPa | 0 mm | - | - | - |
| 1777741632 | 22.78° C | 30% | 1017.4 hPa | 0 mm | - | - | - |
| 1777739223 | 23.33° C | 24% | 1017.7 hPa | 0 mm | - | - | - |
| 1777737417 | 23.33° C | 25% | 1017.9 hPa | 0 mm | - | - | - |
| 1777736815 | 23.33° C | 27% | 1018 hPa | 0 mm | - | - | - |
| 1777735613 | 23.33° C | 30% | 1018.2 hPa | 0 mm | - | - | - |
| 1777734410 | 23.33° C | 34% | 1018.4 hPa | 0 mm | - | - | - |
| 1777733204 | 23.33° C | 35% | 1018.8 hPa | 0 mm | - | - | - |
| 1777732601 | 23.33° C | 34% | 1018.9 hPa | 0 mm | - | - | - |
| 1777729591 | 23.33° C | 34% | 1019.6 hPa | 0 mm | - | - | - |
| 1777727186 | 23.33° C | 36% | 1020.1 hPa | 0 mm | - | - | - |
| 1777725979 | 23.33° C | 38% | 1020.3 hPa | 0 mm | - | - | - |
| 1777721766 | 22.78° C | 36% | 1021.5 hPa | 0 mm | - | - | - |
* Rain latest hour (hover to see other rain measurements)
** Current wind speed in m/s (hover to see current wind gust speed)